createdAt,value
2022-11-29T00:00:57.226Z,9.04
2022-11-29T00:01:57.246Z,9.05
2022-11-29T00:02:56.930Z,9.05
2022-11-29T00:03:56.759Z,9.05
2022-11-29T00:04:57.277Z,9.05
2022-11-29T00:05:56.753Z,9.05
2022-11-29T00:06:56.766Z,9.06
2022-11-29T00:07:56.885Z,9.06
2022-11-29T00:08:56.755Z,9.06
2022-11-29T00:09:56.717Z,9.09
2022-11-29T00:10:56.927Z,9.05
2022-11-29T00:11:56.685Z,9.04
2022-11-29T00:12:57.070Z,9.05
2022-11-29T00:13:56.868Z,9.04
2022-11-29T00:14:56.812Z,9.04
2022-11-29T00:15:56.803Z,9.04
2022-11-29T00:16:56.827Z,9.04
2022-11-29T00:17:56.764Z,9.05
2022-11-29T00:18:56.758Z,9.04
2022-11-29T00:19:56.758Z,9.04
2022-11-29T00:20:56.664Z,9.04
2022-11-29T00:21:56.646Z,9.05
2022-11-29T00:22:56.619Z,9.04
2022-11-29T00:23:56.878Z,9.04
2022-11-29T00:24:56.918Z,9.04
2022-11-29T00:25:56.688Z,9.05
2022-11-29T00:26:56.720Z,9.04
2022-11-29T00:27:56.677Z,9.04
2022-11-29T00:28:56.586Z,9.05
2022-11-29T00:29:56.725Z,9.04
2022-11-29T00:30:56.870Z,9.05
2022-11-29T00:31:56.679Z,9.04
2022-11-29T00:32:56.747Z,9.04
2022-11-29T00:33:56.672Z,9.02
2022-11-29T00:34:59.467Z,9.04
2022-11-29T00:35:56.935Z,9.04
2022-11-29T00:36:56.595Z,9.02
2022-11-29T00:37:56.508Z,9.02
2022-11-29T00:38:56.465Z,9.02
2022-11-29T00:39:56.482Z,9.04
2022-11-29T00:40:56.487Z,9.02
2022-11-29T00:41:58.226Z,9.02
2022-11-29T00:42:56.571Z,9.02
2022-11-29T00:43:56.368Z,9.02
2022-11-29T00:44:56.407Z,9.02
2022-11-29T00:45:56.418Z,9.02
2022-11-29T00:46:56.423Z,9.04
2022-11-29T00:47:58.298Z,9.04
2022-11-29T00:48:57.211Z,9.04
2022-11-29T00:49:56.330Z,9.04
2022-11-29T00:50:56.288Z,9.04
2022-11-29T00:51:56.491Z,9.04
2022-11-29T00:52:56.285Z,9.05
2022-11-29T00:53:56.268Z,9.04
2022-11-29T00:54:56.503Z,9.04
2022-11-29T00:55:56.995Z,9.05
2022-11-29T00:56:56.421Z,9.05
2022-11-29T00:57:56.263Z,9.04
2022-11-29T00:58:57.371Z,9.05
2022-11-29T00:59:56.300Z,9.04
2022-11-29T01:00:58.309Z,9.04
2022-11-29T01:01:56.338Z,9.04
2022-11-29T01:02:56.459Z,9.05
2022-11-29T01:03:56.166Z,9.05
2022-11-29T01:04:56.273Z,9.04
2022-11-29T01:05:56.261Z,9.05
2022-11-29T01:06:56.320Z,9.04
2022-11-29T01:07:56.276Z,9.04
2022-11-29T01:08:56.437Z,9.04
2022-11-29T01:09:56.119Z,9.04
2022-11-29T01:10:56.151Z,9.04
2022-11-29T01:11:56.103Z,9.05
2022-11-29T01:12:56.242Z,9.04
2022-11-29T01:13:58.604Z,9.04
2022-11-29T01:14:56.076Z,9.05
2022-11-29T01:15:56.075Z,9.05
2022-11-29T01:16:56.092Z,9.05
2022-11-29T01:17:56.667Z,9.05
2022-11-29T01:18:57.122Z,9.05
2022-11-29T01:19:57.002Z,9.04
2022-11-29T01:20:56.226Z,9.05
2022-11-29T01:21:56.036Z,9.04
2022-11-29T01:22:56.036Z,9.05
2022-11-29T01:23:56.222Z,9.05
2022-11-29T01:24:56.170Z,9.04
2022-11-29T01:25:55.963Z,9.05
2022-11-29T01:26:56.130Z,9.04
2022-11-29T01:27:55.982Z,9.04
2022-11-29T01:28:56.380Z,9.04
2022-11-29T01:29:56.025Z,9.04
2022-11-29T01:30:56.020Z,9.05
2022-11-29T01:31:56.131Z,9.05
2022-11-29T01:32:55.912Z,9.04
2022-11-29T01:33:55.997Z,9.04
2022-11-29T01:34:55.961Z,9.04
2022-11-29T01:35:56.079Z,9.05
2022-11-29T01:36:55.881Z,9.05
2022-11-29T01:37:56.047Z,9.04
2022-11-29T01:38:56.144Z,9.05
2022-11-29T01:39:55.852Z,9.05
2022-11-29T01:40:56.080Z,9.06
2022-11-29T01:41:55.826Z,9.06
2022-11-29T01:42:55.757Z,9.09
2022-11-29T01:43:55.872Z,9.06
2022-11-29T01:44:55.850Z,9.06
2022-11-29T01:45:55.816Z,9.05
2022-11-29T01:46:56.142Z,9.05
2022-11-29T01:47:55.729Z,9.09
2022-11-29T01:48:55.688Z,9.06
2022-11-29T01:49:55.734Z,9.06
2022-11-29T01:50:55.669Z,9.05
2022-11-29T01:51:55.684Z,9.05
2022-11-29T01:52:55.683Z,9.09
2022-11-29T01:53:55.697Z,9.05
2022-11-29T01:54:55.648Z,9.05
2022-11-29T01:55:55.701Z,9.04
2022-11-29T01:56:55.807Z,9.06
2022-11-29T01:57:55.728Z,9.10
2022-11-29T01:58:55.663Z,9.09
2022-11-29T01:59:55.630Z,9.06
2022-11-29T02:00:55.601Z,9.09
2022-11-29T02:01:55.657Z,9.06
2022-11-29T02:02:55.810Z,9.06
2022-11-29T02:03:55.557Z,9.09
2022-11-29T02:04:55.591Z,9.06
2022-11-29T02:05:55.921Z,9.06
2022-11-29T02:06:55.517Z,9.06
2022-11-29T02:07:55.533Z,9.06
2022-11-29T02:08:55.516Z,9.06
2022-11-29T02:09:55.525Z,9.06
2022-11-29T02:10:56.154Z,9.09
2022-11-29T02:11:55.495Z,9.06
2022-11-29T02:12:55.456Z,9.06
2022-11-29T02:13:55.541Z,9.05
2022-11-29T02:14:55.607Z,9.06
2022-11-29T02:15:55.586Z,9.06
2022-11-29T02:16:56.793Z,9.06
2022-11-29T02:17:55.407Z,9.06
2022-11-29T02:18:55.487Z,9.06
2022-11-29T02:19:55.447Z,9.09
2022-11-29T02:20:55.653Z,9.05
2022-11-29T02:21:55.381Z,9.06
2022-11-29T02:22:55.542Z,9.05
2022-11-29T02:23:55.568Z,9.06
2022-11-29T02:24:55.374Z,9.06
2022-11-29T02:25:55.360Z,9.05
2022-11-29T02:26:55.359Z,9.06
2022-11-29T02:27:55.362Z,9.06
2022-11-29T02:28:55.527Z,9.05
2022-11-29T02:29:55.371Z,9.06
2022-11-29T02:30:55.548Z,9.06
2022-11-29T02:31:55.492Z,9.06
2022-11-29T02:32:55.421Z,9.06
2022-11-29T02:33:55.262Z,9.05
2022-11-29T02:34:55.553Z,9.04
2022-11-29T02:35:55.636Z,9.05
2022-11-29T02:36:55.342Z,9.05
2022-11-29T02:37:55.415Z,9.06
2022-11-29T02:38:55.341Z,9.05
2022-11-29T02:39:55.284Z,9.05
2022-11-29T02:40:55.439Z,9.05
2022-11-29T02:41:55.269Z,9.05
2022-11-29T02:42:57.031Z,9.06
2022-11-29T02:43:55.388Z,9.06
2022-11-29T02:44:55.281Z,9.09
2022-11-29T02:45:55.469Z,9.09
2022-11-29T02:46:55.363Z,9.10
2022-11-29T02:47:55.201Z,9.09
2022-11-29T02:48:55.303Z,9.09
2022-11-29T02:49:55.301Z,9.10
2022-11-29T02:50:55.193Z,9.10
2022-11-29T02:51:58.486Z,9.09
2022-11-29T02:52:56.145Z,9.10
2022-11-29T02:53:57.258Z,9.09
2022-11-29T02:54:55.119Z,9.10
2022-11-29T02:55:55.092Z,9.09
2022-11-29T02:56:55.046Z,9.09
2022-11-29T02:57:55.181Z,9.12
2022-11-29T02:58:55.247Z,9.12
2022-11-29T02:59:54.983Z,9.09
2022-11-29T03:00:55.035Z,9.10
2022-11-29T03:01:55.056Z,9.09
2022-11-29T03:02:55.070Z,9.10
2022-11-29T03:03:55.031Z,9.06
2022-11-29T03:04:55.000Z,9.06
2022-11-29T03:05:54.943Z,9.09
2022-11-29T03:06:54.970Z,9.06
2022-11-29T03:07:55.139Z,9.06
2022-11-29T03:08:55.091Z,9.06
2022-11-29T03:09:55.008Z,9.05
2022-11-29T03:10:55.094Z,9.04
2022-11-29T03:11:54.873Z,9.02
2022-11-29T03:12:54.914Z,9.04
2022-11-29T03:13:54.908Z,9.01
2022-11-29T03:14:54.846Z,9.01
2022-11-29T03:15:54.988Z,9.01
2022-11-29T03:16:54.890Z,8.96
2022-11-29T03:17:54.801Z,8.97
2022-11-29T03:18:54.821Z,8.96
2022-11-29T03:19:54.852Z,8.94
2022-11-29T03:20:54.824Z,8.91
2022-11-29T03:21:54.890Z,8.90
2022-11-29T03:22:55.340Z,8.90
2022-11-29T03:23:54.888Z,8.87
2022-11-29T03:24:54.957Z,8.86
2022-11-29T03:25:54.774Z,8.87
2022-11-29T03:26:54.983Z,8.87
2022-11-29T03:27:54.767Z,8.86
2022-11-29T03:28:54.722Z,8.87
2022-11-29T03:29:54.694Z,8.86
2022-11-29T03:30:54.834Z,8.86
2022-11-29T03:31:54.674Z,8.86
2022-11-29T03:32:54.726Z,8.84
2022-11-29T03:33:54.621Z,8.83
2022-11-29T03:34:57.318Z,8.81
2022-11-29T03:35:55.092Z,8.79
2022-11-29T03:36:54.625Z,8.81
2022-11-29T03:37:54.624Z,8.81
2022-11-29T03:38:54.612Z,8.79
2022-11-29T03:39:54.650Z,8.78
2022-11-29T03:40:54.658Z,8.79
2022-11-29T03:41:54.649Z,8.78
2022-11-29T03:42:54.732Z,8.78
2022-11-29T03:43:54.578Z,8.78
2022-11-29T03:44:54.631Z,8.76
2022-11-29T03:45:54.565Z,8.78
2022-11-29T03:46:54.645Z,8.78
2022-11-29T03:47:54.746Z,8.76
2022-11-29T03:48:54.609Z,8.76
2022-11-29T03:49:54.486Z,8.78
2022-11-29T03:50:54.482Z,8.76
2022-11-29T03:51:54.464Z,8.78
2022-11-29T03:52:54.462Z,8.76
2022-11-29T03:53:54.562Z,8.76
2022-11-29T03:54:54.458Z,8.76
2022-11-29T03:55:54.633Z,8.76
2022-11-29T03:56:54.594Z,8.76
2022-11-29T03:57:54.489Z,8.76
2022-11-29T03:58:54.468Z,8.76
2022-11-29T03:59:54.379Z,8.78
2022-11-29T04:00:54.947Z,8.78
2022-11-29T04:01:54.714Z,8.78
2022-11-29T04:02:54.446Z,8.76
2022-11-29T04:03:54.409Z,8.75
2022-11-29T04:04:54.567Z,8.76
2022-11-29T04:05:54.397Z,8.75
2022-11-29T04:06:54.352Z,8.73
2022-11-29T04:07:54.609Z,8.75
2022-11-29T04:08:54.452Z,8.73
2022-11-29T04:09:54.255Z,8.72
2022-11-29T04:10:54.724Z,8.72
2022-11-29T04:11:54.410Z,8.72
2022-11-29T04:12:54.299Z,8.72
2022-11-29T04:13:54.393Z,8.71
2022-11-29T04:14:54.434Z,8.71
2022-11-29T04:15:54.261Z,8.69
2022-11-29T04:16:54.626Z,8.69
2022-11-29T04:17:54.399Z,8.69
2022-11-29T04:18:54.402Z,8.69
2022-11-29T04:19:54.257Z,8.69
2022-11-29T04:20:54.178Z,8.68
2022-11-29T04:21:54.172Z,8.68
2022-11-29T04:22:54.228Z,8.65
2022-11-29T04:23:54.346Z,8.65
2022-11-29T04:24:54.282Z,8.63
2022-11-29T04:25:54.134Z,8.63
2022-11-29T04:26:54.162Z,8.63
2022-11-29T04:27:54.153Z,8.63
2022-11-29T04:28:54.348Z,8.63
2022-11-29T04:29:54.230Z,8.62
2022-11-29T04:30:54.136Z,8.60
2022-11-29T04:31:54.099Z,8.58
2022-11-29T04:32:54.297Z,8.60
2022-11-29T04:33:54.159Z,8.58
2022-11-29T04:34:54.206Z,8.57
2022-11-29T04:35:54.112Z,8.57
2022-11-29T04:36:53.993Z,8.54
2022-11-29T04:37:54.003Z,8.54
2022-11-29T04:38:53.988Z,8.51
2022-11-29T04:39:54.141Z,8.53
2022-11-29T04:40:54.116Z,8.50
2022-11-29T04:41:54.039Z,8.50
2022-11-29T04:42:53.991Z,8.51
2022-11-29T04:43:54.143Z,8.50
2022-11-29T04:44:54.155Z,8.51
2022-11-29T04:45:54.123Z,8.48
2022-11-29T04:46:53.956Z,8.47
2022-11-29T04:47:54.599Z,8.45
2022-11-29T04:48:53.944Z,8.42
2022-11-29T04:49:53.894Z,8.39
2022-11-29T04:50:53.854Z,8.33
2022-11-29T04:51:54.001Z,8.29
2022-11-29T04:52:54.016Z,8.22
2022-11-29T04:53:53.863Z,8.20
2022-11-29T04:54:54.056Z,8.17
2022-11-29T04:55:53.857Z,8.12
2022-11-29T04:56:53.907Z,8.11
2022-11-29T04:57:53.993Z,8.07
2022-11-29T04:58:53.958Z,8.04
2022-11-29T04:59:53.807Z,7.99
2022-11-29T05:00:53.950Z,7.96
2022-11-29T05:01:54.280Z,7.93
2022-11-29T05:02:53.819Z,7.90
2022-11-29T05:03:57.030Z,7.85
2022-11-29T05:04:54.093Z,7.81
2022-11-29T05:05:53.718Z,7.77
2022-11-29T05:06:53.677Z,7.72
2022-11-29T05:07:53.720Z,7.67
2022-11-29T05:08:53.694Z,7.62
2022-11-29T05:09:54.420Z,7.59
2022-11-29T05:10:53.685Z,7.55
2022-11-29T05:11:56.909Z,7.52
2022-11-29T05:12:53.690Z,7.44
2022-11-29T05:13:53.668Z,7.40
2022-11-29T05:14:53.784Z,7.35
2022-11-29T05:15:53.674Z,7.31
2022-11-29T05:16:53.839Z,7.27
2022-11-29T05:17:53.786Z,7.23
2022-11-29T05:18:53.777Z,7.19
2022-11-29T05:19:53.579Z,7.16
2022-11-29T05:20:53.572Z,7.12
2022-11-29T05:21:53.739Z,7.05
2022-11-29T05:22:53.706Z,7.02
2022-11-29T05:23:53.525Z,6.98
2022-11-29T05:24:53.546Z,6.91
2022-11-29T05:25:53.545Z,6.86
2022-11-29T05:26:53.515Z,6.80
2022-11-29T05:27:53.621Z,6.77
2022-11-29T05:28:53.733Z,6.72
2022-11-29T05:29:53.476Z,6.69
2022-11-29T05:30:53.662Z,6.63
2022-11-29T05:31:53.479Z,6.59
2022-11-29T05:32:53.557Z,6.56
2022-11-29T05:33:53.532Z,6.51
2022-11-29T05:34:53.489Z,6.46
2022-11-29T05:35:53.425Z,6.41
2022-11-29T05:36:53.416Z,6.36
2022-11-29T05:37:53.481Z,6.30
2022-11-29T05:38:53.416Z,6.25
2022-11-29T05:39:53.386Z,6.19
2022-11-29T05:40:53.397Z,6.14
2022-11-29T05:41:53.390Z,6.10
2022-11-29T05:42:53.373Z,6.07
2022-11-29T05:43:53.583Z,6.06
2022-11-29T05:44:53.341Z,6.04
2022-11-29T05:45:53.312Z,6.00
2022-11-29T05:46:53.415Z,6.00
2022-11-29T05:47:53.659Z,5.95
2022-11-29T05:48:53.328Z,5.93
2022-11-29T05:49:53.315Z,5.92
2022-11-29T05:50:53.288Z,5.91
2022-11-29T05:51:53.292Z,5.92
2022-11-29T05:52:53.326Z,5.92
2022-11-29T05:53:53.343Z,5.91
2022-11-29T05:54:53.255Z,5.93
2022-11-29T05:55:53.312Z,5.93
2022-11-29T05:56:53.215Z,5.96
2022-11-29T05:57:53.222Z,5.98
2022-11-29T05:58:53.295Z,6.03
2022-11-29T05:59:53.180Z,6.03
2022-11-29T06:00:53.192Z,6.07
2022-11-29T06:01:53.213Z,6.10
2022-11-29T06:02:53.197Z,6.14
2022-11-29T06:03:53.184Z,6.21
2022-11-29T06:04:53.198Z,6.25
2022-11-29T06:05:53.118Z,6.30
2022-11-29T06:06:53.121Z,6.36
2022-11-29T06:07:53.171Z,6.43
2022-11-29T06:08:53.079Z,6.48
2022-11-29T06:09:53.114Z,6.54
2022-11-29T06:10:53.119Z,6.61
2022-11-29T06:11:53.199Z,6.65
2022-11-29T06:12:53.057Z,6.69
2022-11-29T06:13:53.131Z,6.77
2022-11-29T06:14:53.228Z,6.80
2022-11-29T06:15:53.176Z,6.83
2022-11-29T06:16:53.147Z,6.87
2022-11-29T06:17:53.229Z,6.91
2022-11-29T06:18:52.992Z,6.98
2022-11-29T06:19:52.982Z,7.01
2022-11-29T06:20:53.186Z,7.02
2022-11-29T06:21:52.988Z,7.07
2022-11-29T06:22:53.392Z,7.08
2022-11-29T06:23:53.009Z,7.12
2022-11-29T06:24:52.933Z,7.12
2022-11-29T06:25:53.148Z,7.15
2022-11-29T06:26:52.960Z,7.16
2022-11-29T06:27:52.920Z,7.17
2022-11-29T06:28:52.935Z,7.20
2022-11-29T06:29:52.906Z,7.22
2022-11-29T06:30:52.906Z,7.24
2022-11-29T06:31:52.956Z,7.24
2022-11-29T06:32:53.031Z,7.29
2022-11-29T06:33:52.885Z,7.27
2022-11-29T06:34:52.847Z,7.29
2022-11-29T06:35:52.938Z,7.31
2022-11-29T06:36:52.827Z,7.32
2022-11-29T06:37:52.829Z,7.35
2022-11-29T06:38:52.944Z,7.34
2022-11-29T06:39:52.795Z,7.34
2022-11-29T06:40:56.017Z,7.38
2022-11-29T06:41:52.814Z,7.38
2022-11-29T06:42:52.825Z,7.38
2022-11-29T06:43:52.791Z,7.40
2022-11-29T06:44:52.742Z,7.41
2022-11-29T06:45:52.749Z,7.42
2022-11-29T06:46:52.803Z,7.42
2022-11-29T06:47:52.730Z,7.42
2022-11-29T06:48:55.489Z,7.42
2022-11-29T06:49:52.814Z,7.45
2022-11-29T06:50:52.716Z,7.45
2022-11-29T06:51:52.675Z,7.45
2022-11-29T06:52:52.702Z,7.45
2022-11-29T06:53:52.792Z,7.44
2022-11-29T06:54:52.659Z,7.45
2022-11-29T06:55:52.648Z,7.44
2022-11-29T06:56:52.662Z,7.47
2022-11-29T06:57:52.820Z,7.47
2022-11-29T06:58:53.138Z,7.45
2022-11-29T06:59:52.617Z,7.47
2022-11-29T07:00:52.832Z,7.49
2022-11-29T07:01:52.980Z,7.50
2022-11-29T07:02:52.734Z,7.49
2022-11-29T07:03:52.786Z,7.50
2022-11-29T07:04:53.250Z,7.50
2022-11-29T07:05:52.692Z,7.52
2022-11-29T07:06:52.599Z,7.52
2022-11-29T07:07:52.669Z,7.52
2022-11-29T07:08:52.590Z,7.52
2022-11-29T07:09:52.538Z,7.52
2022-11-29T07:10:52.651Z,7.53
2022-11-29T07:11:52.688Z,7.53
2022-11-29T07:12:52.679Z,7.53
2022-11-29T07:13:52.800Z,7.53
2022-11-29T07:14:52.789Z,7.52
2022-11-29T07:15:52.497Z,7.53
2022-11-29T07:16:57.215Z,7.53
2022-11-29T07:17:52.499Z,7.52
2022-11-29T07:18:52.534Z,7.52
2022-11-29T07:19:52.569Z,7.52
2022-11-29T07:20:52.518Z,7.50
2022-11-29T07:21:52.362Z,7.50
2022-11-29T07:22:52.506Z,7.49
2022-11-29T07:23:52.355Z,7.49
2022-11-29T07:24:52.378Z,7.50
2022-11-29T07:25:52.369Z,7.49
2022-11-29T07:26:58.034Z,7.49
2022-11-29T07:27:52.398Z,7.50
2022-11-29T07:28:52.406Z,7.50
2022-11-29T07:29:52.444Z,7.50
2022-11-29T07:30:52.485Z,7.50
2022-11-29T07:31:52.354Z,7.49
2022-11-29T07:32:57.254Z,7.49
2022-11-29T07:33:52.263Z,7.52
2022-11-29T07:34:52.404Z,7.52
2022-11-29T07:35:52.352Z,7.53
2022-11-29T07:36:52.328Z,7.53
2022-11-29T07:37:52.415Z,7.53
2022-11-29T07:38:52.377Z,7.56
2022-11-29T07:39:52.410Z,7.55
2022-11-29T07:40:52.359Z,7.56
2022-11-29T07:41:52.391Z,7.58
2022-11-29T07:42:52.283Z,7.58
2022-11-29T07:43:52.258Z,7.60
2022-11-29T07:44:52.445Z,7.63
2022-11-29T07:45:52.394Z,7.62
2022-11-29T07:46:52.301Z,7.62
2022-11-29T07:47:52.179Z,7.62
2022-11-29T07:48:52.281Z,7.63
2022-11-29T07:49:52.149Z,7.67
2022-11-29T07:50:52.069Z,7.66
2022-11-29T07:51:52.058Z,7.67
2022-11-29T07:52:52.076Z,7.67
2022-11-29T07:53:52.199Z,7.66
2022-11-29T07:54:52.053Z,7.67
2022-11-29T07:55:52.054Z,7.67
2022-11-29T07:56:52.078Z,7.69
2022-11-29T07:57:52.157Z,7.69
2022-11-29T07:58:52.204Z,7.69
2022-11-29T07:59:52.268Z,7.71
2022-11-29T08:00:52.048Z,7.72
2022-11-29T08:01:52.385Z,7.72
2022-11-29T08:02:52.014Z,7.72
2022-11-29T08:03:52.233Z,7.74
2022-11-29T08:04:52.162Z,7.75
2022-11-29T08:05:51.930Z,7.75
2022-11-29T08:06:51.917Z,7.75
2022-11-29T08:07:52.143Z,7.75
2022-11-29T08:08:52.046Z,7.77
2022-11-29T08:09:52.101Z,7.78
2022-11-29T08:10:51.955Z,7.78
2022-11-29T08:11:51.890Z,7.78
2022-11-29T08:12:51.857Z,7.79
2022-11-29T08:13:51.928Z,7.79
2022-11-29T08:14:51.861Z,7.81
2022-11-29T08:15:51.888Z,7.81
2022-11-29T08:16:51.833Z,7.82
2022-11-29T08:17:51.887Z,7.82
2022-11-29T08:18:52.550Z,7.81
2022-11-29T08:19:52.111Z,7.84
2022-11-29T08:20:51.937Z,7.81
2022-11-29T08:21:52.700Z,7.79
2022-11-29T08:22:51.819Z,7.81
2022-11-29T08:23:51.887Z,7.79
2022-11-29T08:24:51.917Z,7.81
2022-11-29T08:25:52.944Z,7.81
2022-11-29T08:26:51.874Z,7.82
2022-11-29T08:27:51.954Z,7.82
2022-11-29T08:28:51.794Z,7.85
2022-11-29T08:29:51.873Z,7.89
2022-11-29T08:30:51.924Z,7.87
2022-11-29T08:31:51.730Z,7.89
2022-11-29T08:32:51.989Z,7.92
2022-11-29T08:33:51.653Z,7.93
2022-11-29T08:34:51.769Z,7.94
2022-11-29T08:35:51.639Z,7.96
2022-11-29T08:36:51.637Z,7.97
2022-11-29T08:37:51.597Z,7.99
2022-11-29T08:38:57.171Z,8.02
2022-11-29T08:39:51.843Z,8.04
2022-11-29T08:40:51.710Z,8.04
2022-11-29T08:41:51.880Z,8.08
2022-11-29T08:42:51.589Z,8.10
2022-11-29T08:43:51.553Z,8.12
2022-11-29T08:44:51.571Z,8.12
2022-11-29T08:45:51.790Z,8.14
2022-11-29T08:46:52.563Z,8.17
2022-11-29T08:47:51.523Z,8.17
2022-11-29T08:48:51.548Z,8.18
2022-11-29T08:49:51.637Z,8.20
2022-11-29T08:50:51.553Z,8.22
2022-11-29T08:51:51.524Z,8.22
2022-11-29T08:52:51.541Z,8.25
2022-11-29T08:53:51.462Z,8.28
2022-11-29T08:54:51.469Z,8.29
2022-11-29T08:55:51.450Z,8.29
2022-11-29T08:57:51.536Z,8.30
2022-11-29T08:58:51.520Z,8.32
2022-11-29T08:59:51.419Z,8.33
2022-11-29T09:00:51.546Z,8.35
2022-11-29T09:01:51.672Z,8.35
2022-11-29T09:02:51.386Z,8.35
2022-11-29T09:03:51.504Z,8.37
2022-11-29T09:04:51.612Z,8.39
2022-11-29T09:05:51.338Z,8.40
2022-11-29T09:06:51.539Z,8.40
2022-11-29T09:07:51.559Z,8.44
2022-11-29T09:08:51.337Z,8.44
2022-11-29T09:09:51.516Z,8.45
2022-11-29T09:10:51.367Z,8.45
2022-11-29T09:11:51.291Z,8.45
2022-11-29T09:12:51.344Z,8.47
2022-11-29T09:13:51.500Z,8.47
2022-11-29T09:14:51.450Z,8.48
2022-11-29T09:15:51.641Z,8.48
2022-11-29T09:16:51.547Z,8.48
2022-11-29T09:17:51.219Z,8.47
2022-11-29T09:18:52.237Z,8.45
2022-11-29T09:19:51.392Z,8.45
2022-11-29T09:20:51.217Z,8.45
2022-11-29T09:21:51.387Z,8.40
2022-11-29T09:22:51.252Z,8.40
2022-11-29T09:23:51.177Z,8.37
2022-11-29T09:24:51.127Z,8.37
2022-11-29T09:25:51.120Z,8.36
2022-11-29T09:26:51.136Z,8.37
2022-11-29T09:27:51.083Z,8.35
2022-11-29T09:28:51.301Z,8.35
2022-11-29T09:29:51.199Z,8.33
2022-11-29T09:30:51.203Z,8.30
2022-11-29T09:31:51.347Z,8.30
2022-11-29T09:32:51.233Z,8.29
2022-11-29T09:33:51.179Z,8.29
2022-11-29T09:34:51.361Z,8.29
2022-11-29T09:35:51.091Z,8.30
2022-11-29T09:36:51.170Z,8.29
2022-11-29T09:37:51.095Z,8.32
2022-11-29T09:38:51.164Z,8.32
2022-11-29T09:39:51.167Z,8.32
2022-11-29T09:40:51.031Z,8.32
2022-11-29T09:41:51.167Z,8.36
2022-11-29T09:42:51.111Z,8.37
2022-11-29T09:43:50.954Z,8.39
2022-11-29T09:44:50.953Z,8.40
2022-11-29T09:45:51.333Z,8.40
2022-11-29T09:46:54.467Z,8.44
2022-11-29T09:47:50.939Z,8.45
2022-11-29T09:48:51.118Z,8.45
2022-11-29T09:49:50.965Z,8.45
2022-11-29T09:50:51.020Z,8.48
2022-11-29T09:51:50.897Z,8.48
2022-11-29T09:52:51.005Z,8.51
2022-11-29T09:53:50.881Z,8.54
2022-11-29T09:54:51.007Z,8.55
2022-11-29T09:55:51.015Z,8.57
2022-11-29T09:56:50.880Z,8.54
2022-11-29T09:57:51.137Z,8.55
2022-11-29T09:58:51.034Z,8.57
2022-11-29T09:59:50.988Z,8.58
2022-11-29T10:00:50.880Z,8.63
2022-11-29T10:01:50.762Z,8.60
2022-11-29T10:02:50.942Z,8.60
2022-11-29T10:03:51.005Z,8.62
2022-11-29T10:04:50.852Z,8.63
2022-11-29T10:05:51.092Z,8.63
2022-11-29T10:06:51.205Z,8.66
2022-11-29T10:07:51.037Z,8.66
2022-11-29T10:08:50.762Z,8.69
2022-11-29T10:09:50.754Z,8.68
2022-11-29T10:10:50.725Z,8.68
2022-11-29T10:11:50.681Z,8.71
2022-11-29T10:12:50.651Z,8.71
2022-11-29T10:13:50.640Z,8.69
2022-11-29T10:14:50.641Z,8.72
2022-11-29T10:15:50.645Z,8.72
2022-11-29T10:16:50.681Z,8.72
2022-11-29T10:17:50.603Z,8.73
2022-11-29T10:18:50.625Z,8.75
2022-11-29T10:19:50.666Z,8.73
2022-11-29T10:20:50.589Z,8.71
2022-11-29T10:21:50.752Z,8.71
2022-11-29T10:22:50.797Z,8.75
2022-11-29T10:23:50.682Z,8.71
2022-11-29T10:24:50.540Z,8.71
2022-11-29T10:25:50.654Z,8.72
2022-11-29T10:26:50.736Z,8.71
2022-11-29T10:27:50.719Z,8.69
2022-11-29T10:28:50.551Z,8.69
2022-11-29T10:29:50.492Z,8.71
2022-11-29T10:30:50.625Z,8.72
2022-11-29T10:31:50.702Z,8.72
2022-11-29T10:32:50.652Z,8.73
2022-11-29T10:33:50.482Z,8.73
2022-11-29T10:34:51.008Z,8.75
2022-11-29T10:35:50.516Z,8.73
2022-11-29T10:36:50.480Z,8.75
2022-11-29T10:38:14.531Z,8.76
2022-11-29T10:38:50.531Z,8.78
2022-11-29T10:39:50.488Z,8.79
2022-11-29T10:40:50.597Z,8.78
2022-11-29T10:41:50.369Z,8.79
2022-11-29T10:42:50.371Z,8.79
2022-11-29T10:43:50.322Z,8.83
2022-11-29T10:44:50.338Z,8.84
2022-11-29T10:45:50.683Z,8.84
2022-11-29T10:46:50.411Z,8.84
2022-11-29T10:47:50.527Z,8.83
2022-11-29T10:48:50.327Z,8.81
2022-11-29T10:49:50.298Z,8.79
2022-11-29T10:50:50.336Z,8.79
2022-11-29T10:51:50.289Z,8.79
2022-11-29T10:52:50.619Z,8.83
2022-11-29T10:53:50.257Z,8.81
2022-11-29T10:54:50.369Z,8.81
2022-11-29T10:55:50.504Z,8.84
2022-11-29T10:56:50.280Z,8.86
2022-11-29T10:57:50.288Z,8.86
2022-11-29T10:58:50.218Z,8.84
2022-11-29T10:59:50.188Z,8.84
2022-11-29T11:00:50.383Z,8.81
2022-11-29T11:01:50.254Z,8.84
2022-11-29T11:02:50.162Z,8.84
2022-11-29T11:03:52.768Z,8.86
2022-11-29T11:04:50.170Z,8.84
2022-11-29T11:05:50.140Z,8.84
2022-11-29T11:06:50.144Z,8.84
2022-11-29T11:07:50.438Z,8.83
2022-11-29T11:08:50.113Z,8.83
2022-11-29T11:09:50.077Z,8.79
2022-11-29T11:10:54.461Z,8.78
2022-11-29T11:11:50.099Z,8.73
2022-11-29T11:12:50.051Z,8.72
2022-11-29T11:13:50.131Z,8.72
2022-11-29T11:16:17.544Z,8.71
2022-11-29T11:16:22.617Z,8.69
2022-11-29T11:17:22.724Z,8.69
2022-11-29T11:18:22.449Z,8.71
2022-11-29T11:19:22.470Z,8.71
2022-11-29T11:20:22.541Z,8.71
2022-11-29T11:21:22.819Z,8.71
2022-11-29T11:22:22.600Z,8.72
2022-11-29T11:23:22.405Z,8.73
2022-11-29T11:24:22.572Z,8.75
2022-11-29T11:25:22.711Z,8.75
2022-11-29T11:26:22.468Z,8.78
2022-11-29T11:27:22.357Z,8.78
2022-11-29T11:28:22.451Z,8.78
2022-11-29T11:29:22.541Z,8.78
2022-11-29T11:30:22.449Z,8.79
2022-11-29T11:31:22.616Z,8.79
2022-11-29T11:32:22.639Z,8.78
2022-11-29T11:33:22.354Z,8.79
2022-11-29T11:34:22.910Z,8.79
2022-11-29T11:35:22.469Z,8.78
2022-11-29T11:36:22.902Z,8.78
2022-11-29T11:37:22.292Z,8.81
2022-11-29T11:38:22.245Z,8.79
2022-11-29T11:39:22.287Z,8.78
2022-11-29T11:40:22.649Z,8.79
2022-11-29T11:41:22.316Z,8.79
2022-11-29T11:42:22.674Z,8.81
2022-11-29T11:43:22.141Z,8.81
2022-11-29T11:45:22.347Z,8.81
2022-11-29T11:46:22.222Z,8.81
2022-11-29T11:47:22.135Z,8.81
2022-11-29T11:48:22.218Z,8.83
2022-11-29T11:49:22.104Z,8.83
2022-11-29T11:50:22.392Z,8.83
2022-11-29T11:51:22.150Z,8.81
2022-11-29T11:52:22.289Z,8.83
2022-11-29T11:53:22.143Z,8.84
2022-11-29T11:54:22.214Z,8.83
2022-11-29T11:55:22.145Z,8.83
2022-11-29T11:56:22.076Z,8.84
2022-11-29T11:57:22.120Z,8.84
2022-11-29T11:58:22.108Z,8.81
2022-11-29T11:59:22.091Z,8.79
2022-11-29T12:00:47.609Z,8.76
2022-11-29T12:01:22.012Z,8.75
2022-11-29T12:02:22.260Z,8.72
2022-11-29T12:03:22.153Z,8.72
2022-11-29T12:04:22.023Z,8.69
2022-11-29T12:05:21.939Z,8.68
2022-11-29T12:06:22.027Z,8.66
2022-11-29T12:07:38.742Z,8.63
2022-11-29T12:08:22.107Z,8.62
2022-11-29T12:09:22.061Z,8.60
2022-11-29T12:10:22.033Z,8.60
2022-11-29T12:11:22.041Z,8.60
2022-11-29T12:12:21.941Z,8.60
2022-11-29T12:13:21.913Z,8.60
2022-11-29T12:14:22.042Z,8.62
2022-11-29T12:15:22.091Z,8.62
2022-11-29T12:16:21.890Z,8.62
2022-11-29T12:17:21.978Z,8.62
2022-11-29T12:18:21.872Z,8.62
2022-11-29T12:19:21.806Z,8.63
2022-11-29T12:20:21.821Z,8.65
2022-11-29T12:21:21.886Z,8.63
2022-11-29T12:22:21.751Z,8.65
2022-11-29T12:23:21.754Z,8.63
2022-11-29T12:24:21.780Z,8.62
2022-11-29T12:25:21.771Z,8.60
2022-11-29T12:26:54.814Z,8.60
2022-11-29T12:27:21.749Z,8.62
2022-11-29T12:28:21.706Z,8.58
2022-11-29T12:29:21.866Z,8.58
2022-11-29T12:30:21.893Z,8.58
2022-11-29T12:31:21.808Z,8.60
2022-11-29T12:32:21.680Z,8.60
2022-11-29T12:33:21.820Z,8.60
2022-11-29T12:34:22.707Z,8.62
2022-11-29T12:35:21.656Z,8.60
2022-11-29T12:36:21.631Z,8.62
2022-11-29T12:37:21.705Z,8.63
2022-11-29T12:38:21.630Z,8.62
2022-11-29T12:39:21.645Z,8.62
2022-11-29T12:40:21.805Z,8.63
2022-11-29T12:41:21.826Z,8.63
2022-11-29T12:42:21.554Z,8.65
2022-11-29T12:43:21.559Z,8.66
2022-11-29T12:44:21.564Z,8.66
2022-11-29T12:45:21.765Z,8.66
2022-11-29T12:46:21.687Z,8.66
2022-11-29T12:47:37.537Z,8.68
2022-11-29T12:48:21.523Z,8.65
2022-11-29T12:49:21.511Z,8.63
2022-11-29T12:50:22.433Z,8.65
2022-11-29T12:51:21.730Z,8.63
2022-11-29T12:52:21.462Z,8.63
2022-11-29T12:53:27.033Z,8.60
2022-11-29T12:54:21.464Z,8.57
2022-11-29T12:55:21.441Z,8.55
2022-11-29T12:56:21.456Z,8.57
2022-11-29T12:57:21.485Z,8.58
2022-11-29T12:58:21.415Z,8.58
2022-11-29T12:59:21.441Z,8.58
2022-11-29T13:00:21.400Z,8.63
2022-11-29T13:01:21.681Z,8.63
2022-11-29T13:02:21.440Z,8.62
2022-11-29T13:03:21.428Z,8.63
2022-11-29T13:04:21.445Z,8.65
2022-11-29T13:05:21.566Z,8.63
2022-11-29T13:06:21.379Z,8.65
2022-11-29T13:07:21.384Z,8.63
2022-11-29T13:08:21.549Z,8.65
2022-11-29T13:09:21.584Z,8.63
2022-11-29T13:10:21.486Z,8.62
2022-11-29T13:11:21.391Z,8.65
2022-11-29T13:12:21.398Z,8.65
2022-11-29T13:13:21.275Z,8.68
2022-11-29T13:14:42.184Z,8.65
2022-11-29T13:15:21.478Z,8.68
2022-11-29T13:16:26.346Z,8.71
2022-11-29T13:17:21.483Z,8.71
2022-11-29T13:18:21.275Z,8.75
2022-11-29T13:19:21.221Z,8.78
2022-11-29T13:20:21.217Z,8.79
2022-11-29T13:21:21.194Z,8.81